sensor_id;sensor_type;location;lat;lon;timestamp;pressure;altitude;pressure_sealevel;temperature
68939;BMP180;59064;45.294;11.816;2023-07-13T00:01:48;101071.80;;;25.60
68939;BMP180;59064;45.294;11.816;2023-07-13T00:04:18;101078.40;;;25.60
68939;BMP180;59064;45.294;11.816;2023-07-13T00:06:45;101103.00;;;25.60
68939;BMP180;59064;45.294;11.816;2023-07-13T00:09:16;101099.20;;;25.50
68939;BMP180;59064;45.294;11.816;2023-07-13T00:11:43;101089.40;;;25.30
68939;BMP180;59064;45.294;11.816;2023-07-13T00:14:10;101070.80;;;25.00
68939;BMP180;59064;45.294;11.816;2023-07-13T00:16:38;101067.20;;;24.80
68939;BMP180;59064;45.294;11.816;2023-07-13T00:19:05;101071.40;;;24.64
68939;BMP180;59064;45.294;11.816;2023-07-13T00:21:31;101083.60;;;24.50
68939;BMP180;59064;45.294;11.816;2023-07-13T00:23:57;101077.00;;;24.40
68939;BMP180;59064;45.294;11.816;2023-07-13T00:26:23;101082.00;;;24.30
68939;BMP180;59064;45.294;11.816;2023-07-13T00:28:49;101074.40;;;24.20
68939;BMP180;59064;45.294;11.816;2023-07-13T00:31:15;101076.00;;;24.10
68939;BMP180;59064;45.294;11.816;2023-07-13T00:33:41;101082.80;;;24.00
68939;BMP180;59064;45.294;11.816;2023-07-13T00:36:08;101112.00;;;24.00
68939;BMP180;59064;45.294;11.816;2023-07-13T00:38:34;101136.00;;;23.90
68939;BMP180;59064;45.294;11.816;2023-07-13T00:41:00;101136.60;;;23.80
68939;BMP180;59064;45.294;11.816;2023-07-13T00:43:27;101156.20;;;23.70
68939;BMP180;59064;45.294;11.816;2023-07-13T00:48:25;101211.60;;;23.50
68939;BMP180;59064;45.294;11.816;2023-07-13T00:50:53;101175.20;;;23.30
68939;BMP180;59064;45.294;11.816;2023-07-13T00:53:20;101169.60;;;23.20
68939;BMP180;59064;45.294;11.816;2023-07-13T00:55:50;101173.40;;;23.00
68939;BMP180;59064;45.294;11.816;2023-07-13T00:58:16;101170.60;;;22.80
68939;BMP180;59064;45.294;11.816;2023-07-13T01:00:42;101156.60;;;22.70
68939;BMP180;59064;45.294;11.816;2023-07-13T01:03:08;101147.00;;;22.60
68939;BMP180;59064;45.294;11.816;2023-07-13T01:05:34;101134.20;;;22.50
68939;BMP180;59064;45.294;11.816;2023-07-13T01:08:01;101113.00;;;22.50
68939;BMP180;59064;45.294;11.816;2023-07-13T01:10:29;101104.00;;;22.44
68939;BMP180;59064;45.294;11.816;2023-07-13T01:13:05;101097.00;;;22.40
68939;BMP180;59064;45.294;11.816;2023-07-13T01:15:41;101067.80;;;22.40
68939;BMP180;59064;45.294;11.816;2023-07-13T01:18:25;101068.00;;;22.38
68939;BMP180;59064;45.294;11.816;2023-07-13T01:20:56;101074.20;;;22.40
68939;BMP180;59064;45.294;11.816;2023-07-13T01:23:23;101068.60;;;22.40
68939;BMP180;59064;45.294;11.816;2023-07-13T01:25:51;101071.20;;;22.36
68939;BMP180;59064;45.294;11.816;2023-07-13T01:28:18;101074.40;;;22.30
68939;BMP180;59064;45.294;11.816;2023-07-13T01:30:45;101075.00;;;22.30
68939;BMP180;59064;45.294;11.816;2023-07-13T01:33:17;101072.00;;;22.30
68939;BMP180;59064;45.294;11.816;2023-07-13T01:35:45;101068.00;;;22.30
68939;BMP180;59064;45.294;11.816;2023-07-13T01:38:13;101066.20;;;22.28
68939;BMP180;59064;45.294;11.816;2023-07-13T01:40:39;101063.60;;;22.26
68939;BMP180;59064;45.294;11.816;2023-07-13T01:43:05;101063.00;;;22.22
68939;BMP180;59064;45.294;11.816;2023-07-13T01:45:31;101056.60;;;22.30
68939;BMP180;59064;45.294;11.816;2023-07-13T01:47:57;101054.80;;;22.26
68939;BMP180;59064;45.294;11.816;2023-07-13T01:50:24;101052.80;;;22.20
68939;BMP180;59064;45.294;11.816;2023-07-13T01:52:50;101048.60;;;22.20
68939;BMP180;59064;45.294;11.816;2023-07-13T01:55:16;101049.80;;;22.20
68939;BMP180;59064;45.294;11.816;2023-07-13T01:57:42;101060.00;;;22.20
68939;BMP180;59064;45.294;11.816;2023-07-13T02:00:10;101064.80;;;22.10
68939;BMP180;59064;45.294;11.816;2023-07-13T02:02:35;101059.20;;;22.10
68939;BMP180;59064;45.294;11.816;2023-07-13T02:05:01;101066.60;;;22.00
68939;BMP180;59064;45.294;11.816;2023-07-13T02:07:27;101069.60;;;22.00
68939;BMP180;59064;45.294;11.816;2023-07-13T02:09:52;101070.60;;;22.00
68939;BMP180;59064;45.294;11.816;2023-07-13T02:12:19;101073.60;;;21.90
68939;BMP180;59064;45.294;11.816;2023-07-13T02:14:44;101072.00;;;21.90
68939;BMP180;59064;45.294;11.816;2023-07-13T02:17:10;101077.80;;;21.80
68939;BMP180;59064;45.294;11.816;2023-07-13T02:19:36;101086.20;;;21.80
68939;BMP180;59064;45.294;11.816;2023-07-13T02:22:02;101079.60;;;21.80
68939;BMP180;59064;45.294;11.816;2023-07-13T02:24:28;101082.80;;;21.76
68939;BMP180;59064;45.294;11.816;2023-07-13T02:26:54;101091.00;;;21.80
68939;BMP180;59064;45.294;11.816;2023-07-13T02:29:20;101097.00;;;21.70
68939;BMP180;59064;45.294;11.816;2023-07-13T02:31:45;101101.80;;;21.70
68939;BMP180;59064;45.294;11.816;2023-07-13T02:34:11;101088.00;;;21.70
68939;BMP180;59064;45.294;11.816;2023-07-13T02:36:37;101085.60;;;21.70
68939;BMP180;59064;45.294;11.816;2023-07-13T02:39:05;101085.60;;;21.66
68939;BMP180;59064;45.294;11.816;2023-07-13T02:41:30;101089.20;;;21.64
68939;BMP180;59064;45.294;11.816;2023-07-13T02:43:58;101089.40;;;21.68
68939;BMP180;59064;45.294;11.816;2023-07-13T02:46:33;101093.00;;;21.60
68939;BMP180;59064;45.294;11.816;2023-07-13T02:48:59;101092.40;;;21.60
68939;BMP180;59064;45.294;11.816;2023-07-13T02:51:25;101089.40;;;21.62
68939;BMP180;59064;45.294;11.816;2023-07-13T02:53:51;101091.40;;;21.68
68939;BMP180;59064;45.294;11.816;2023-07-13T02:56:24;101093.00;;;21.70
68939;BMP180;59064;45.294;11.816;2023-07-13T02:58:50;101087.80;;;21.70
68939;BMP180;59064;45.294;11.816;2023-07-13T03:01:16;101093.80;;;21.60
68939;BMP180;59064;45.294;11.816;2023-07-13T03:03:46;101086.40;;;21.60
68939;BMP180;59064;45.294;11.816;2023-07-13T03:06:13;101088.20;;;21.60
68939;BMP180;59064;45.294;11.816;2023-07-13T03:08:39;101089.20;;;21.58
68939;BMP180;59064;45.294;11.816;2023-07-13T03:11:09;101088.20;;;21.50
68939;BMP180;59064;45.294;11.816;2023-07-13T03:13:37;101092.60;;;21.50
68939;BMP180;59064;45.294;11.816;2023-07-13T03:16:04;101101.60;;;21.50
68939;BMP180;59064;45.294;11.816;2023-07-13T03:18:30;101110.60;;;21.50
68939;BMP180;59064;45.294;11.816;2023-07-13T03:20:55;101123.80;;;21.42
68939;BMP180;59064;45.294;11.816;2023-07-13T03:23:21;101127.40;;;21.50
68939;BMP180;59064;45.294;11.816;2023-07-13T03:25:47;101132.60;;;21.50
68939;BMP180;59064;45.294;11.816;2023-07-13T03:28:14;101125.40;;;21.50
68939;BMP180;59064;45.294;11.816;2023-07-13T03:30:41;101124.80;;;21.50
68939;BMP180;59064;45.294;11.816;2023-07-13T03:33:07;101122.00;;;21.50
68939;BMP180;59064;45.294;11.816;2023-07-13T03:35:34;101123.40;;;21.50
68939;BMP180;59064;45.294;11.816;2023-07-13T03:38:00;101118.60;;;21.50
68939;BMP180;59064;45.294;11.816;2023-07-13T03:40:27;101119.00;;;21.50
68939;BMP180;59064;45.294;11.816;2023-07-13T03:42:53;101128.60;;;21.50
68939;BMP180;59064;45.294;11.816;2023-07-13T03:45:19;101132.40;;;21.50
68939;BMP180;59064;45.294;11.816;2023-07-13T03:47:45;101133.80;;;21.50
68939;BMP180;59064;45.294;11.816;2023-07-13T03:50:11;101149.60;;;21.40
68939;BMP180;59064;45.294;11.816;2023-07-13T03:52:37;101153.00;;;21.40
68939;BMP180;59064;45.294;11.816;2023-07-13T03:55:02;101145.20;;;21.30
68939;BMP180;59064;45.294;11.816;2023-07-13T03:57:28;101148.20;;;21.20
68939;BMP180;59064;45.294;11.816;2023-07-13T03:59:54;101153.60;;;21.20
68939;BMP180;59064;45.294;11.816;2023-07-13T04:02:19;101164.80;;;21.10
68939;BMP180;59064;45.294;11.816;2023-07-13T04:04:46;101163.20;;;21.10
68939;BMP180;59064;45.294;11.816;2023-07-13T04:07:11;101156.00;;;21.08
68939;BMP180;59064;45.294;11.816;2023-07-13T04:09:37;101158.60;;;21.00
68939;BMP180;59064;45.294;11.816;2023-07-13T04:12:03;101155.20;;;21.00
68939;BMP180;59064;45.294;11.816;2023-07-13T04:14:29;101159.60;;;21.00
68939;BMP180;59064;45.294;11.816;2023-07-13T04:16:55;101151.40;;;20.98
68939;BMP180;59064;45.294;11.816;2023-07-13T04:19:21;101150.80;;;20.90
68939;BMP180;59064;45.294;11.816;2023-07-13T04:21:47;101155.20;;;20.90
68939;BMP180;59064;45.294;11.816;2023-07-13T04:24:12;101160.40;;;20.90
68939;BMP180;59064;45.294;11.816;2023-07-13T04:26:39;101167.40;;;20.90
68939;BMP180;59064;45.294;11.816;2023-07-13T04:29:06;101173.80;;;20.90
68939;BMP180;59064;45.294;11.816;2023-07-13T04:31:32;101174.20;;;20.94
68939;BMP180;59064;45.294;11.816;2023-07-13T04:33:58;101173.00;;;20.94
68939;BMP180;59064;45.294;11.816;2023-07-13T04:36:25;101172.00;;;21.00
68939;BMP180;59064;45.294;11.816;2023-07-13T04:38:54;101171.40;;;21.00
68939;BMP180;59064;45.294;11.816;2023-07-13T04:41:20;101176.40;;;21.00
68939;BMP180;59064;45.294;11.816;2023-07-13T04:43:47;101178.60;;;21.10
68939;BMP180;59064;45.294;11.816;2023-07-13T04:46:16;101168.60;;;21.10
68939;BMP180;59064;45.294;11.816;2023-07-13T04:48:45;101174.40;;;21.10
68939;BMP180;59064;45.294;11.816;2023-07-13T04:51:11;101172.80;;;21.10
68939;BMP180;59064;45.294;11.816;2023-07-13T04:53:37;101180.00;;;21.12
68939;BMP180;59064;45.294;11.816;2023-07-13T04:56:03;101185.40;;;21.20
68939;BMP180;59064;45.294;11.816;2023-07-13T04:58:30;101186.60;;;21.20
68939;BMP180;59064;45.294;11.816;2023-07-13T05:01:03;101189.80;;;21.24
68939;BMP180;59064;45.294;11.816;2023-07-13T05:03:30;101181.00;;;21.30
68939;BMP180;59064;45.294;11.816;2023-07-13T05:06:07;101176.40;;;21.30
68939;BMP180;59064;45.294;11.816;2023-07-13T05:08:35;101182.60;;;21.40
68939;BMP180;59064;45.294;11.816;2023-07-13T05:11:04;101176.40;;;21.40
68939;BMP180;59064;45.294;11.816;2023-07-13T05:13:31;101178.40;;;21.50
68939;BMP180;59064;45.294;11.816;2023-07-13T05:16:00;101179.60;;;21.60
68939;BMP180;59064;45.294;11.816;2023-07-13T05:18:26;101182.00;;;21.70
68939;BMP180;59064;45.294;11.816;2023-07-13T05:21:02;101184.80;;;21.70
68939;BMP180;59064;45.294;11.816;2023-07-13T05:23:29;101186.60;;;21.80
68939;BMP180;59064;45.294;11.816;2023-07-13T05:25:56;101185.80;;;21.92
68939;BMP180;59064;45.294;11.816;2023-07-13T05:28:21;101188.60;;;22.00
68939;BMP180;59064;45.294;11.816;2023-07-13T05:30:48;101181.00;;;22.10
68939;BMP180;59064;45.294;11.816;2023-07-13T05:33:15;101188.80;;;22.20
68939;BMP180;59064;45.294;11.816;2023-07-13T05:35:40;101190.60;;;22.30
68939;BMP180;59064;45.294;11.816;2023-07-13T05:38:06;101187.60;;;22.30
68939;BMP180;59064;45.294;11.816;2023-07-13T05:40:32;101189.20;;;22.30
68939;BMP180;59064;45.294;11.816;2023-07-13T05:42:58;101182.80;;;22.30
68939;BMP180;59064;45.294;11.816;2023-07-13T05:45:23;101185.60;;;22.30
68939;BMP180;59064;45.294;11.816;2023-07-13T05:47:49;101185.00;;;22.30
68939;BMP180;59064;45.294;11.816;2023-07-13T05:50:14;101194.00;;;22.30
68939;BMP180;59064;45.294;11.816;2023-07-13T05:52:40;101202.00;;;22.40
68939;BMP180;59064;45.294;11.816;2023-07-13T05:55:06;101215.60;;;22.40
68939;BMP180;59064;45.294;11.816;2023-07-13T05:57:31;101209.60;;;22.50
68939;BMP180;59064;45.294;11.816;2023-07-13T05:59:57;101220.00;;;22.50
68939;BMP180;59064;45.294;11.816;2023-07-13T06:02:23;101210.20;;;22.60
68939;BMP180;59064;45.294;11.816;2023-07-13T06:04:48;101218.20;;;22.50
68939;BMP180;59064;45.294;11.816;2023-07-13T06:07:14;101231.20;;;22.54
68939;BMP180;59064;45.294;11.816;2023-07-13T06:09:40;101240.00;;;22.68
68939;BMP180;59064;45.294;11.816;2023-07-13T06:12:06;101244.20;;;22.80
68939;BMP180;59064;45.294;11.816;2023-07-13T06:14:32;101231.00;;;22.90
68939;BMP180;59064;45.294;11.816;2023-07-13T06:16:57;101213.20;;;23.00
68939;BMP180;59064;45.294;11.816;2023-07-13T06:19:23;101211.80;;;23.10
68939;BMP180;59064;45.294;11.816;2023-07-13T06:21:49;101214.00;;;23.20
68939;BMP180;59064;45.294;11.816;2023-07-13T06:24:14;101207.80;;;23.30
68939;BMP180;59064;45.294;11.816;2023-07-13T06:26:40;101199.40;;;23.50
68939;BMP180;59064;45.294;11.816;2023-07-13T06:29:05;101201.00;;;23.60
68939;BMP180;59064;45.294;11.816;2023-07-13T06:31:31;101201.40;;;23.96
68939;BMP180;59064;45.294;11.816;2023-07-13T06:33:56;101195.60;;;24.28
68939;BMP180;59064;45.294;11.816;2023-07-13T06:36:22;101189.60;;;24.30
68939;BMP180;59064;45.294;11.816;2023-07-13T06:38:48;101195.00;;;24.30
68939;BMP180;59064;45.294;11.816;2023-07-13T06:41:13;101199.00;;;24.30
68939;BMP180;59064;45.294;11.816;2023-07-13T06:43:39;101204.80;;;24.40
68939;BMP180;59064;45.294;11.816;2023-07-13T06:46:05;101212.00;;;24.40
68939;BMP180;59064;45.294;11.816;2023-07-13T06:48:30;101210.80;;;24.42
68939;BMP180;59064;45.294;11.816;2023-07-13T06:50:56;101202.00;;;24.48
68939;BMP180;59064;45.294;11.816;2023-07-13T06:53:22;101195.80;;;24.50
68939;BMP180;59064;45.294;11.816;2023-07-13T06:55:48;101189.80;;;24.50
68939;BMP180;59064;45.294;11.816;2023-07-13T06:58:16;101189.80;;;24.50
68939;BMP180;59064;45.294;11.816;2023-07-13T07:00:43;101189.60;;;24.60
68939;BMP180;59064;45.294;11.816;2023-07-13T07:03:08;101185.20;;;24.60
68939;BMP180;59064;45.294;11.816;2023-07-13T07:05:34;101193.00;;;24.60
68939;BMP180;59064;45.294;11.816;2023-07-13T07:08:00;101192.80;;;24.60
68939;BMP180;59064;45.294;11.816;2023-07-13T07:10:26;101194.20;;;24.60
68939;BMP180;59064;45.294;11.816;2023-07-13T07:12:52;101210.00;;;24.60
68939;BMP180;59064;45.294;11.816;2023-07-13T07:15:18;101214.40;;;24.60
68939;BMP180;59064;45.294;11.816;2023-07-13T07:17:44;101202.80;;;24.70
68939;BMP180;59064;45.294;11.816;2023-07-13T07:20:10;101201.80;;;24.80
68939;BMP180;59064;45.294;11.816;2023-07-13T07:22:36;101216.20;;;24.84
68939;BMP180;59064;45.294;11.816;2023-07-13T07:25:02;101216.60;;;24.90
68939;BMP180;59064;45.294;11.816;2023-07-13T07:27:28;101199.20;;;24.90
68939;BMP180;59064;45.294;11.816;2023-07-13T07:29:53;101196.60;;;24.88
68939;BMP180;59064;45.294;11.816;2023-07-13T07:32:20;101201.60;;;24.80
68939;BMP180;59064;45.294;11.816;2023-07-13T07:34:46;101211.00;;;24.80
68939;BMP180;59064;45.294;11.816;2023-07-13T07:37:13;101221.80;;;24.80
68939;BMP180;59064;45.294;11.816;2023-07-13T07:39:39;101219.80;;;24.72
68939;BMP180;59064;45.294;11.816;2023-07-13T07:42:05;101221.40;;;24.70
68939;BMP180;59064;45.294;11.816;2023-07-13T07:44:32;101221.20;;;24.70
68939;BMP180;59064;45.294;11.816;2023-07-13T07:46:58;101228.40;;;24.70
68939;BMP180;59064;45.294;11.816;2023-07-13T07:49:24;101228.40;;;24.70
68939;BMP180;59064;45.294;11.816;2023-07-13T07:51:50;101226.60;;;24.70
68939;BMP180;59064;45.294;11.816;2023-07-13T07:54:16;101231.80;;;24.70
68939;BMP180;59064;45.294;11.816;2023-07-13T07:56:42;101230.60;;;24.74
68939;BMP180;59064;45.294;11.816;2023-07-13T07:59:07;101237.80;;;24.80
68939;BMP180;59064;45.294;11.816;2023-07-13T08:01:33;101236.60;;;24.80
68939;BMP180;59064;45.294;11.816;2023-07-13T08:03:58;101242.80;;;24.76
68939;BMP180;59064;45.294;11.816;2023-07-13T08:06:24;101238.00;;;24.70
68939;BMP180;59064;45.294;11.816;2023-07-13T08:08:50;101237.20;;;24.70
68939;BMP180;59064;45.294;11.816;2023-07-13T08:11:17;101236.80;;;24.70
68939;BMP180;59064;45.294;11.816;2023-07-13T08:13:43;101247.60;;;24.60
68939;BMP180;59064;45.294;11.816;2023-07-13T08:16:09;101251.00;;;24.60
68939;BMP180;59064;45.294;11.816;2023-07-13T08:18:34;101235.60;;;24.60
68939;BMP180;59064;45.294;11.816;2023-07-13T08:21:05;101244.20;;;24.50
68939;BMP180;59064;45.294;11.816;2023-07-13T08:23:31;101245.20;;;24.50
68939;BMP180;59064;45.294;11.816;2023-07-13T08:25:57;101246.60;;;24.50
68939;BMP180;59064;45.294;11.816;2023-07-13T08:28:23;101247.60;;;24.40
68939;BMP180;59064;45.294;11.816;2023-07-13T08:30:49;101249.40;;;24.40
68939;BMP180;59064;45.294;11.816;2023-07-13T08:33:16;101249.20;;;24.40
68939;BMP180;59064;45.294;11.816;2023-07-13T08:35:42;101249.20;;;24.30
68939;BMP180;59064;45.294;11.816;2023-07-13T08:38:10;101223.40;;;24.30
68939;BMP180;59064;45.294;11.816;2023-07-13T08:40:35;101205.40;;;24.30
68939;BMP180;59064;45.294;11.816;2023-07-13T08:43:01;101212.00;;;24.20
68939;BMP180;59064;45.294;11.816;2023-07-13T08:48:39;101242.20;;;24.20
68939;BMP180;59064;45.294;11.816;2023-07-13T08:51:34;101212.60;;;24.20
68939;BMP180;59064;45.294;11.816;2023-07-13T08:54:36;101237.00;;;24.20
68939;BMP180;59064;45.294;11.816;2023-07-13T08:57:17;101259.20;;;24.22
68939;BMP180;59064;45.294;11.816;2023-07-13T08:59:44;101247.20;;;24.30
68939;BMP180;59064;45.294;11.816;2023-07-13T09:02:57;101256.20;;;24.30
68939;BMP180;59064;45.294;11.816;2023-07-13T09:05:38;101285.60;;;24.20
68939;BMP180;59064;45.294;11.816;2023-07-13T09:16:20;101258.60;;;24.10
68939;BMP180;59064;45.294;11.816;2023-07-13T09:18:50;101266.20;;;24.00
68939;BMP180;59064;45.294;11.816;2023-07-13T09:21:29;101250.00;;;24.00
68939;BMP180;59064;45.294;11.816;2023-07-13T09:24:20;101200.60;;;23.90
68939;BMP180;59064;45.294;11.816;2023-07-13T09:26:48;101171.60;;;23.80
68939;BMP180;59064;45.294;11.816;2023-07-13T09:29:26;101174.00;;;23.70
68939;BMP180;59064;45.294;11.816;2023-07-13T09:31:57;101165.20;;;23.70
68939;BMP180;59064;45.294;11.816;2023-07-13T09:34:25;101160.20;;;23.70
68939;BMP180;59064;45.294;11.816;2023-07-13T09:36:51;101160.40;;;23.70
68939;BMP180;59064;45.294;11.816;2023-07-13T09:39:42;101163.40;;;23.64
68939;BMP180;59064;45.294;11.816;2023-07-13T09:47:21;101095.00;;;23.58
68939;BMP180;59064;45.294;11.816;2023-07-13T09:50:00;101126.80;;;23.50
68939;BMP180;59064;45.294;11.816;2023-07-13T09:52:28;101173.20;;;23.50
68939;BMP180;59064;45.294;11.816;2023-07-13T09:55:11;101182.60;;;23.58
68939;BMP180;59064;45.294;11.816;2023-07-13T09:57:47;101167.40;;;23.60
68939;BMP180;59064;45.294;11.816;2023-07-13T10:00:26;101171.40;;;23.60
68939;BMP180;59064;45.294;11.816;2023-07-13T10:03:13;101199.40;;;23.60
68939;BMP180;59064;45.294;11.816;2023-07-13T10:05:44;101206.60;;;23.70
68939;BMP180;59064;45.294;11.816;2023-07-13T10:08:29;101209.60;;;23.76
68939;BMP180;59064;45.294;11.816;2023-07-13T10:11:01;101241.00;;;23.80
68939;BMP180;59064;45.294;11.816;2023-07-13T10:13:36;101257.40;;;23.90
68939;BMP180;59064;45.294;11.816;2023-07-13T10:16:04;101245.40;;;24.00
68939;BMP180;59064;45.294;11.816;2023-07-13T10:18:42;101240.40;;;24.20
68939;BMP180;59064;45.294;11.816;2023-07-13T10:21:25;101252.80;;;24.40
68939;BMP180;59064;45.294;11.816;2023-07-13T10:24:15;101253.60;;;24.70
68939;BMP180;59064;45.294;11.816;2023-07-13T10:26:55;101241.60;;;25.06
68939;BMP180;59064;45.294;11.816;2023-07-13T10:29:24;101229.00;;;25.44
68939;BMP180;59064;45.294;11.816;2023-07-13T10:31:51;101229.20;;;25.80
68939;BMP180;59064;45.294;11.816;2023-07-13T10:34:16;101231.40;;;26.18
68939;BMP180;59064;45.294;11.816;2023-07-13T10:36:45;101236.80;;;26.38
68939;BMP180;59064;45.294;11.816;2023-07-13T10:39:27;101236.00;;;26.68
68939;BMP180;59064;45.294;11.816;2023-07-13T10:42:06;101247.60;;;27.18
68939;BMP180;59064;45.294;11.816;2023-07-13T10:44:34;101255.80;;;27.34
68939;BMP180;59064;45.294;11.816;2023-07-13T10:47:19;101260.60;;;27.42
68939;BMP180;59064;45.294;11.816;2023-07-13T10:49:46;101263.00;;;27.76
68939;BMP180;59064;45.294;11.816;2023-07-13T10:52:47;101259.20;;;28.26
68939;BMP180;59064;45.294;11.816;2023-07-13T10:56:05;101256.20;;;28.64
68939;BMP180;59064;45.294;11.816;2023-07-13T10:58:42;101246.20;;;29.22
68939;BMP180;59064;45.294;11.816;2023-07-13T11:01:10;101232.60;;;29.76
68939;BMP180;59064;45.294;11.816;2023-07-13T11:03:55;101217.20;;;30.10
68939;BMP180;59064;45.294;11.816;2023-07-13T11:08:56;101213.00;;;30.40
68939;BMP180;59064;45.294;11.816;2023-07-13T11:25:06;101185.40;;;31.60
68939;BMP180;59064;45.294;11.816;2023-07-13T11:27:51;101183.80;;;31.60
68939;BMP180;59064;45.294;11.816;2023-07-13T11:33:20;101198.00;;;31.54
68939;BMP180;59064;45.294;11.816;2023-07-13T11:38:51;101195.80;;;31.80
68939;BMP180;59064;45.294;11.816;2023-07-13T11:41:25;101193.80;;;31.70
68939;BMP180;59064;45.294;11.816;2023-07-13T11:44:06;101189.40;;;31.80
68939;BMP180;59064;45.294;11.816;2023-07-13T11:46:32;101188.80;;;32.00
68939;BMP180;59064;45.294;11.816;2023-07-13T11:48:57;101179.60;;;32.24
68939;BMP180;59064;45.294;11.816;2023-07-13T11:51:30;101182.40;;;32.28
68939;BMP180;59064;45.294;11.816;2023-07-13T11:54:26;101187.60;;;32.30
68939;BMP180;59064;45.294;11.816;2023-07-13T11:56:56;101190.40;;;32.12
68939;BMP180;59064;45.294;11.816;2023-07-13T11:59:23;101188.00;;;32.10
68939;BMP180;59064;45.294;11.816;2023-07-13T12:01:52;101179.00;;;32.10
68939;BMP180;59064;45.294;11.816;2023-07-13T12:04:27;101170.00;;;32.20
68939;BMP180;59064;45.294;11.816;2023-07-13T12:07:16;101173.60;;;32.10
68939;BMP180;59064;45.294;11.816;2023-07-13T12:09:42;101169.00;;;32.30
68939;BMP180;59064;45.294;11.816;2023-07-13T12:12:18;101170.40;;;32.56
68939;BMP180;59064;45.294;11.816;2023-07-13T12:14:43;101167.20;;;32.86
68939;BMP180;59064;45.294;11.816;2023-07-13T12:17:21;101167.00;;;32.60
68939;BMP180;59064;45.294;11.816;2023-07-13T12:19:51;101172.00;;;32.60
68939;BMP180;59064;45.294;11.816;2023-07-13T12:22:19;101167.20;;;32.80
68939;BMP180;59064;45.294;11.816;2023-07-13T12:24:46;101169.80;;;33.16
68939;BMP180;59064;45.294;11.816;2023-07-13T12:27:27;101171.40;;;33.74
68939;BMP180;59064;45.294;11.816;2023-07-13T12:30:29;101165.20;;;34.16
68939;BMP180;59064;45.294;11.816;2023-07-13T12:35:29;101158.60;;;34.60
68939;BMP180;59064;45.294;11.816;2023-07-13T12:37:57;101153.40;;;34.80
68939;BMP180;59064;45.294;11.816;2023-07-13T12:40:32;101145.60;;;34.72
68939;BMP180;59064;45.294;11.816;2023-07-13T12:42:58;101147.00;;;34.40
68939;BMP180;59064;45.294;11.816;2023-07-13T12:45:27;101144.20;;;34.20
68939;BMP180;59064;45.294;11.816;2023-07-13T12:47:59;101140.40;;;34.00
68939;BMP180;59064;45.294;11.816;2023-07-13T12:50:42;101136.60;;;34.00
68939;BMP180;59064;45.294;11.816;2023-07-13T12:53:21;101138.60;;;33.90
68939;BMP180;59064;45.294;11.816;2023-07-13T12:55:53;101136.80;;;33.90
68939;BMP180;59064;45.294;11.816;2023-07-13T13:01:02;101120.80;;;34.32
68939;BMP180;59064;45.294;11.816;2023-07-13T13:03:40;101115.40;;;34.40
68939;BMP180;59064;45.294;11.816;2023-07-13T13:08:49;101112.00;;;34.30
68939;BMP180;59064;45.294;11.816;2023-07-13T13:11:16;101105.20;;;34.40
68939;BMP180;59064;45.294;11.816;2023-07-13T13:13:43;101109.80;;;34.50
68939;BMP180;59064;45.294;11.816;2023-07-13T13:16:22;101109.00;;;34.60
68939;BMP180;59064;45.294;11.816;2023-07-13T13:18:50;101110.80;;;34.50
68939;BMP180;59064;45.294;11.816;2023-07-13T13:21:17;101100.20;;;34.80
68939;BMP180;59064;45.294;11.816;2023-07-13T13:23:45;101100.60;;;35.10
68939;BMP180;59064;45.294;11.816;2023-07-13T13:26:14;101097.00;;;35.10
68939;BMP180;59064;45.294;11.816;2023-07-13T13:28:44;101095.40;;;35.00
68939;BMP180;59064;45.294;11.816;2023-07-13T13:31:11;101090.20;;;35.00
68939;BMP180;59064;45.294;11.816;2023-07-13T13:33:45;101085.60;;;35.34
68939;BMP180;59064;45.294;11.816;2023-07-13T13:36:22;101087.40;;;35.72
68939;BMP180;59064;45.294;11.816;2023-07-13T13:38:50;101093.20;;;35.90
68939;BMP180;59064;45.294;11.816;2023-07-13T13:41:16;101092.60;;;35.36
68939;BMP180;59064;45.294;11.816;2023-07-13T13:43:43;101091.20;;;34.78
68939;BMP180;59064;45.294;11.816;2023-07-13T13:46:24;101088.60;;;34.72
68939;BMP180;59064;45.294;11.816;2023-07-13T13:48:55;101089.40;;;34.86
68939;BMP180;59064;45.294;11.816;2023-07-13T13:51:23;101085.60;;;35.16
68939;BMP180;59064;45.294;11.816;2023-07-13T13:53:49;101082.60;;;35.80
68939;BMP180;59064;45.294;11.816;2023-07-13T13:56:18;101079.20;;;36.20
68939;BMP180;59064;45.294;11.816;2023-07-13T13:58:43;101076.00;;;36.40
68939;BMP180;59064;45.294;11.816;2023-07-13T14:01:21;101086.20;;;36.60
68939;BMP180;59064;45.294;11.816;2023-07-13T14:03:49;101094.60;;;36.70
68939;BMP180;59064;45.294;11.816;2023-07-13T14:06:16;101103.60;;;36.64
68939;BMP180;59064;45.294;11.816;2023-07-13T14:08:42;101109.00;;;37.28
68939;BMP180;59064;45.294;11.816;2023-07-13T14:11:14;101114.60;;;37.96
68939;BMP180;59064;45.294;11.816;2023-07-13T14:13:44;101123.20;;;38.50
68939;BMP180;59064;45.294;11.816;2023-07-13T14:16:16;101127.00;;;38.60
68939;BMP180;59064;45.294;11.816;2023-07-13T14:18:44;101127.60;;;38.54
68939;BMP180;59064;45.294;11.816;2023-07-13T14:21:20;101136.60;;;38.40
68939;BMP180;59064;45.294;11.816;2023-07-13T14:23:48;101129.60;;;38.60
68939;BMP180;59064;45.294;11.816;2023-07-13T14:26:24;101134.80;;;38.90
68939;BMP180;59064;45.294;11.816;2023-07-13T14:28:56;101143.20;;;39.00
68939;BMP180;59064;45.294;11.816;2023-07-13T14:31:25;101157.20;;;39.20
68939;BMP180;59064;45.294;11.816;2023-07-13T14:33:51;101160.80;;;39.30
68939;BMP180;59064;45.294;11.816;2023-07-13T14:38:42;101167.40;;;39.90
68939;BMP180;59064;45.294;11.816;2023-07-13T14:41:08;101164.60;;;39.70
68939;BMP180;59064;45.294;11.816;2023-07-13T14:43:33;101162.60;;;39.54
68939;BMP180;59064;45.294;11.816;2023-07-13T14:45:59;101152.80;;;39.50
68939;BMP180;59064;45.294;11.816;2023-07-13T14:48:25;101154.80;;;39.62